sensor_id;sensor_type;location;lat;lon;timestamp;temperature;humidity
47162;DHT22;32921;53.256;8.198;2023-10-08T00:01:15;11.70;99.90
47162;DHT22;32921;53.256;8.198;2023-10-08T00:03:47;11.70;99.90
47162;DHT22;32921;53.256;8.198;2023-10-08T00:06:20;11.70;99.90
47162;DHT22;32921;53.256;8.198;2023-10-08T00:08:47;11.70;99.90
47162;DHT22;32921;53.256;8.198;2023-10-08T00:11:13;11.70;99.90
47162;DHT22;32921;53.256;8.198;2023-10-08T00:13:41;11.70;99.90
47162;DHT22;32921;53.256;8.198;2023-10-08T00:16:11;11.70;99.90
47162;DHT22;32921;53.256;8.198;2023-10-08T00:18:38;11.80;99.90
47162;DHT22;32921;53.256;8.198;2023-10-08T00:21:06;11.80;99.90
47162;DHT22;32921;53.256;8.198;2023-10-08T00:23:35;11.80;99.90
47162;DHT22;32921;53.256;8.198;2023-10-08T00:26:04;11.90;99.90
47162;DHT22;32921;53.256;8.198;2023-10-08T00:28:30;12.00;99.90
47162;DHT22;32921;53.256;8.198;2023-10-08T00:30:57;11.90;99.90
47162;DHT22;32921;53.256;8.198;2023-10-08T00:33:23;11.90;99.90
47162;DHT22;32921;53.256;8.198;2023-10-08T00:35:49;11.90;99.90
47162;DHT22;32921;53.256;8.198;2023-10-08T00:38:15;11.80;99.90
47162;DHT22;32921;53.256;8.198;2023-10-08T00:40:42;11.80;99.90
47162;DHT22;32921;53.256;8.198;2023-10-08T00:43:32;11.80;99.90
47162;DHT22;32921;53.256;8.198;2023-10-08T00:46:03;11.80;99.90
47162;DHT22;32921;53.256;8.198;2023-10-08T00:48:30;11.90;99.90
47162;DHT22;32921;53.256;8.198;2023-10-08T00:51:02;11.90;99.90
47162;DHT22;32921;53.256;8.198;2023-10-08T00:53:44;11.90;99.90
47162;DHT22;32921;53.256;8.198;2023-10-08T00:56:10;11.90;99.90
47162;DHT22;32921;53.256;8.198;2023-10-08T00:58:44;11.90;99.90
47162;DHT22;32921;53.256;8.198;2023-10-08T01:01:17;11.90;99.90
47162;DHT22;32921;53.256;8.198;2023-10-08T01:03:45;12.00;99.90
47162;DHT22;32921;53.256;8.198;2023-10-08T01:06:11;12.00;99.90
47162;DHT22;32921;53.256;8.198;2023-10-08T01:08:37;11.90;99.90
47162;DHT22;32921;53.256;8.198;2023-10-08T01:11:23;11.90;99.90
47162;DHT22;32921;53.256;8.198;2023-10-08T01:14:04;11.90;99.90
47162;DHT22;32921;53.256;8.198;2023-10-08T01:16:32;11.90;99.90
47162;DHT22;32921;53.256;8.198;2023-10-08T01:19:00;12.00;99.90
47162;DHT22;32921;53.256;8.198;2023-10-08T01:21:28;12.00;99.90
47162;DHT22;32921;53.256;8.198;2023-10-08T01:24:03;12.10;99.90
47162;DHT22;32921;53.256;8.198;2023-10-08T01:26:35;12.10;99.90
47162;DHT22;32921;53.256;8.198;2023-10-08T01:29:08;12.00;99.90
47162;DHT22;32921;53.256;8.198;2023-10-08T01:31:34;12.00;99.90
47162;DHT22;32921;53.256;8.198;2023-10-08T01:34:02;12.10;99.90
47162;DHT22;32921;53.256;8.198;2023-10-08T01:36:30;12.20;99.90
47162;DHT22;32921;53.256;8.198;2023-10-08T01:38:56;12.10;99.90
47162;DHT22;32921;53.256;8.198;2023-10-08T01:41:22;12.00;99.90
47162;DHT22;32921;53.256;8.198;2023-10-08T01:43:56;12.00;99.90
47162;DHT22;32921;53.256;8.198;2023-10-08T01:46:21;11.90;99.90
47162;DHT22;32921;53.256;8.198;2023-10-08T01:48:48;11.90;99.90
47162;DHT22;32921;53.256;8.198;2023-10-08T01:51:19;11.90;99.90
47162;DHT22;32921;53.256;8.198;2023-10-08T01:53:54;11.90;99.90
47162;DHT22;32921;53.256;8.198;2023-10-08T01:56:21;11.90;99.90
47162;DHT22;32921;53.256;8.198;2023-10-08T01:58:46;12.00;99.90
47162;DHT22;32921;53.256;8.198;2023-10-08T02:01:12;12.00;99.90
47162;DHT22;32921;53.256;8.198;2023-10-08T02:03:38;11.90;99.90
47162;DHT22;32921;53.256;8.198;2023-10-08T02:06:04;11.90;99.90
47162;DHT22;32921;53.256;8.198;2023-10-08T02:08:31;12.00;99.90
47162;DHT22;32921;53.256;8.198;2023-10-08T02:10:57;12.00;99.90
47162;DHT22;32921;53.256;8.198;2023-10-08T02:13:23;12.00;99.90
47162;DHT22;32921;53.256;8.198;2023-10-08T02:15:52;12.00;99.90
47162;DHT22;32921;53.256;8.198;2023-10-08T02:18:18;11.90;99.90
47162;DHT22;32921;53.256;8.198;2023-10-08T02:20:44;11.90;99.90
47162;DHT22;32921;53.256;8.198;2023-10-08T02:23:09;11.90;99.90
47162;DHT22;32921;53.256;8.198;2023-10-08T02:25:39;12.00;99.90
47162;DHT22;32921;53.256;8.198;2023-10-08T02:28:06;12.00;99.90
47162;DHT22;32921;53.256;8.198;2023-10-08T02:30:36;12.00;99.90
47162;DHT22;32921;53.256;8.198;2023-10-08T02:33:05;12.00;99.90
47162;DHT22;32921;53.256;8.198;2023-10-08T02:35:39;12.10;99.90
47162;DHT22;32921;53.256;8.198;2023-10-08T02:38:05;12.00;99.90
47162;DHT22;32921;53.256;8.198;2023-10-08T02:40:31;11.90;99.90
47162;DHT22;32921;53.256;8.198;2023-10-08T02:42:57;11.90;99.90
47162;DHT22;32921;53.256;8.198;2023-10-08T02:45:25;11.90;99.90
47162;DHT22;32921;53.256;8.198;2023-10-08T02:47:51;11.90;99.90
47162;DHT22;32921;53.256;8.198;2023-10-08T02:50:24;11.80;99.90
47162;DHT22;32921;53.256;8.198;2023-10-08T02:52:52;11.70;99.90
47162;DHT22;32921;53.256;8.198;2023-10-08T02:55:18;11.70;99.90
47162;DHT22;32921;53.256;8.198;2023-10-08T02:57:53;11.70;99.90
47162;DHT22;32921;53.256;8.198;2023-10-08T03:00:19;11.70;99.90
47162;DHT22;32921;53.256;8.198;2023-10-08T03:02:46;11.80;99.90
47162;DHT22;32921;53.256;8.198;2023-10-08T03:05:12;11.80;99.90
47162;DHT22;32921;53.256;8.198;2023-10-08T03:07:43;11.80;99.90
47162;DHT22;32921;53.256;8.198;2023-10-08T03:10:09;11.70;99.90
47162;DHT22;32921;53.256;8.198;2023-10-08T03:12:44;11.70;99.90
47162;DHT22;32921;53.256;8.198;2023-10-08T03:15:12;11.70;99.90
47162;DHT22;32921;53.256;8.198;2023-10-08T03:17:41;11.80;99.90
47162;DHT22;32921;53.256;8.198;2023-10-08T03:20:17;11.80;99.90
47162;DHT22;32921;53.256;8.198;2023-10-08T03:23:16;11.70;99.90
47162;DHT22;32921;53.256;8.198;2023-10-08T03:25:55;11.70;99.90
47162;DHT22;32921;53.256;8.198;2023-10-08T03:28:26;11.70;99.90
47162;DHT22;32921;53.256;8.198;2023-10-08T03:30:56;11.70;99.90
47162;DHT22;32921;53.256;8.198;2023-10-08T03:33:35;11.60;99.90
47162;DHT22;32921;53.256;8.198;2023-10-08T03:36:07;11.70;99.90
47162;DHT22;32921;53.256;8.198;2023-10-08T03:38:55;11.60;99.90
47162;DHT22;32921;53.256;8.198;2023-10-08T03:41:23;11.60;99.90
47162;DHT22;32921;53.256;8.198;2023-10-08T03:43:58;11.60;99.90
47162;DHT22;32921;53.256;8.198;2023-10-08T03:46:30;11.60;99.90
47162;DHT22;32921;53.256;8.198;2023-10-08T03:48:57;11.80;99.90
47162;DHT22;32921;53.256;8.198;2023-10-08T03:51:24;11.80;99.90
47162;DHT22;32921;53.256;8.198;2023-10-08T03:53:53;11.70;99.90
47162;DHT22;32921;53.256;8.198;2023-10-08T03:56:41;11.60;99.90
47162;DHT22;32921;53.256;8.198;2023-10-08T03:59:12;11.70;99.90
47162;DHT22;32921;53.256;8.198;2023-10-08T04:01:39;11.60;99.90
47162;DHT22;32921;53.256;8.198;2023-10-08T04:04:06;11.60;99.90
47162;DHT22;32921;53.256;8.198;2023-10-08T04:06:32;11.60;99.90
47162;DHT22;32921;53.256;8.198;2023-10-08T04:09:00;11.60;99.90
47162;DHT22;32921;53.256;8.198;2023-10-08T04:11:35;11.60;99.90
47162;DHT22;32921;53.256;8.198;2023-10-08T04:14:02;11.60;99.90
47162;DHT22;32921;53.256;8.198;2023-10-08T04:16:32;11.60;99.90
47162;DHT22;32921;53.256;8.198;2023-10-08T04:19:03;11.50;99.90
47162;DHT22;32921;53.256;8.198;2023-10-08T04:21:29;11.50;99.90
47162;DHT22;32921;53.256;8.198;2023-10-08T04:23:55;11.60;99.90
47162;DHT22;32921;53.256;8.198;2023-10-08T04:26:23;11.80;99.90
47162;DHT22;32921;53.256;8.198;2023-10-08T04:28:56;11.70;99.90
47162;DHT22;32921;53.256;8.198;2023-10-08T04:31:29;11.60;99.90
47162;DHT22;32921;53.256;8.198;2023-10-08T04:34:06;11.70;99.90
47162;DHT22;32921;53.256;8.198;2023-10-08T04:36:44;11.60;99.90
47162;DHT22;32921;53.256;8.198;2023-10-08T04:39:11;11.70;99.90
47162;DHT22;32921;53.256;8.198;2023-10-08T04:41:42;11.70;99.90
47162;DHT22;32921;53.256;8.198;2023-10-08T04:44:09;11.60;99.90
47162;DHT22;32921;53.256;8.198;2023-10-08T04:46:43;11.60;99.90
47162;DHT22;32921;53.256;8.198;2023-10-08T04:49:15;11.50;99.90
47162;DHT22;32921;53.256;8.198;2023-10-08T04:52:02;11.50;99.90
47162;DHT22;32921;53.256;8.198;2023-10-08T04:54:40;11.50;99.90
47162;DHT22;32921;53.256;8.198;2023-10-08T04:57:07;11.50;99.90
47162;DHT22;32921;53.256;8.198;2023-10-08T04:59:44;11.50;99.90
47162;DHT22;32921;53.256;8.198;2023-10-08T05:02:10;11.40;99.90
47162;DHT22;32921;53.256;8.198;2023-10-08T05:04:39;11.40;99.90
47162;DHT22;32921;53.256;8.198;2023-10-08T05:07:24;11.50;99.90
47162;DHT22;32921;53.256;8.198;2023-10-08T05:10:16;11.50;99.90
47162;DHT22;32921;53.256;8.198;2023-10-08T05:12:53;11.60;99.90
47162;DHT22;32921;53.256;8.198;2023-10-08T05:15:29;11.60;99.90
47162;DHT22;32921;53.256;8.198;2023-10-08T05:18:15;11.40;99.90
47162;DHT22;32921;53.256;8.198;2023-10-08T05:20:43;11.40;99.90
47162;DHT22;32921;53.256;8.198;2023-10-08T05:23:16;11.50;99.90
47162;DHT22;32921;53.256;8.198;2023-10-08T05:25:56;11.50;99.90
47162;DHT22;32921;53.256;8.198;2023-10-08T05:28:32;11.40;99.90
47162;DHT22;32921;53.256;8.198;2023-10-08T05:31:10;11.40;99.90
47162;DHT22;32921;53.256;8.198;2023-10-08T05:33:40;11.40;99.90
47162;DHT22;32921;53.256;8.198;2023-10-08T05:36:11;11.40;99.90
47162;DHT22;32921;53.256;8.198;2023-10-08T05:38:43;11.30;99.90
47162;DHT22;32921;53.256;8.198;2023-10-08T05:41:28;11.40;99.90
47162;DHT22;32921;53.256;8.198;2023-10-08T05:44:04;11.40;99.90
47162;DHT22;32921;53.256;8.198;2023-10-08T05:46:45;11.40;99.90
47162;DHT22;32921;53.256;8.198;2023-10-08T05:49:36;11.30;99.90
47162;DHT22;32921;53.256;8.198;2023-10-08T05:52:18;11.30;99.90
47162;DHT22;32921;53.256;8.198;2023-10-08T05:54:51;11.30;99.90
47162;DHT22;32921;53.256;8.198;2023-10-08T05:57:39;11.30;99.90
47162;DHT22;32921;53.256;8.198;2023-10-08T06:00:06;11.30;99.90
47162;DHT22;32921;53.256;8.198;2023-10-08T06:02:32;11.30;99.90
47162;DHT22;32921;53.256;8.198;2023-10-08T06:05:02;11.30;99.90
47162;DHT22;32921;53.256;8.198;2023-10-08T06:07:42;11.30;99.90
47162;DHT22;32921;53.256;8.198;2023-10-08T06:13:03;11.40;99.90
47162;DHT22;32921;53.256;8.198;2023-10-08T06:15:43;11.40;99.90
47162;DHT22;32921;53.256;8.198;2023-10-08T06:18:25;11.60;99.90
47162;DHT22;32921;53.256;8.198;2023-10-08T06:20:54;11.60;99.90
47162;DHT22;32921;53.256;8.198;2023-10-08T06:23:21;11.60;99.90
47162;DHT22;32921;53.256;8.198;2023-10-08T06:25:49;11.50;99.90
47162;DHT22;32921;53.256;8.198;2023-10-08T06:28:33;11.40;99.90
47162;DHT22;32921;53.256;8.198;2023-10-08T06:31:02;11.30;99.90
47162;DHT22;32921;53.256;8.198;2023-10-08T06:33:42;11.30;99.90
47162;DHT22;32921;53.256;8.198;2023-10-08T06:36:08;11.20;99.90
47162;DHT22;32921;53.256;8.198;2023-10-08T06:38:37;11.20;99.90
47162;DHT22;32921;53.256;8.198;2023-10-08T06:41:05;11.10;99.90
47162;DHT22;32921;53.256;8.198;2023-10-08T06:43:35;11.10;99.90
47162;DHT22;32921;53.256;8.198;2023-10-08T06:46:02;11.20;99.90
47162;DHT22;32921;53.256;8.198;2023-10-08T06:48:28;11.30;99.90
47162;DHT22;32921;53.256;8.198;2023-10-08T06:50:55;11.40;99.90
47162;DHT22;32921;53.256;8.198;2023-10-08T06:53:22;11.50;99.90
47162;DHT22;32921;53.256;8.198;2023-10-08T06:55:48;11.60;99.90
47162;DHT22;32921;53.256;8.198;2023-10-08T06:58:20;11.70;99.90
47162;DHT22;32921;53.256;8.198;2023-10-08T07:00:45;11.90;99.90
47162;DHT22;32921;53.256;8.198;2023-10-08T07:03:15;12.10;99.90
47162;DHT22;32921;53.256;8.198;2023-10-08T07:05:52;12.30;99.90
47162;DHT22;32921;53.256;8.198;2023-10-08T07:08:25;12.40;99.90
47162;DHT22;32921;53.256;8.198;2023-10-08T07:10:53;12.30;99.90
47162;DHT22;32921;53.256;8.198;2023-10-08T07:13:19;12.40;99.90
47162;DHT22;32921;53.256;8.198;2023-10-08T07:15:49;12.30;99.90
47162;DHT22;32921;53.256;8.198;2023-10-08T07:18:15;12.30;99.90
47162;DHT22;32921;53.256;8.198;2023-10-08T07:20:46;12.30;99.90
47162;DHT22;32921;53.256;8.198;2023-10-08T07:23:18;12.20;99.90
47162;DHT22;32921;53.256;8.198;2023-10-08T07:25:51;12.20;99.90
47162;DHT22;32921;53.256;8.198;2023-10-08T07:28:21;12.30;99.90
47162;DHT22;32921;53.256;8.198;2023-10-08T07:30:47;12.50;99.90
47162;DHT22;32921;53.256;8.198;2023-10-08T07:33:14;12.50;99.90
47162;DHT22;32921;53.256;8.198;2023-10-08T07:35:47;12.60;99.90
47162;DHT22;32921;53.256;8.198;2023-10-08T07:38:33;13.10;99.90
47162;DHT22;32921;53.256;8.198;2023-10-08T07:41:00;13.40;99.90
47162;DHT22;32921;53.256;8.198;2023-10-08T07:43:26;13.80;99.90
47162;DHT22;32921;53.256;8.198;2023-10-08T07:45:54;14.10;99.90
47162;DHT22;32921;53.256;8.198;2023-10-08T07:48:19;14.10;99.90
47162;DHT22;32921;53.256;8.198;2023-10-08T07:50:48;13.90;99.90
47162;DHT22;32921;53.256;8.198;2023-10-08T07:53:16;13.90;99.90
47162;DHT22;32921;53.256;8.198;2023-10-08T07:55:47;13.80;99.90
47162;DHT22;32921;53.256;8.198;2023-10-08T07:58:15;13.80;99.90
47162;DHT22;32921;53.256;8.198;2023-10-08T08:00:41;13.70;99.90
47162;DHT22;32921;53.256;8.198;2023-10-08T08:03:07;13.80;99.90
47162;DHT22;32921;53.256;8.198;2023-10-08T08:05:32;13.80;99.90
47162;DHT22;32921;53.256;8.198;2023-10-08T08:07:59;13.70;99.90
47162;DHT22;32921;53.256;8.198;2023-10-08T08:10:32;13.90;99.90
47162;DHT22;32921;53.256;8.198;2023-10-08T08:13:03;14.00;99.90
47162;DHT22;32921;53.256;8.198;2023-10-08T08:15:34;14.10;99.90
47162;DHT22;32921;53.256;8.198;2023-10-08T08:18:05;14.20;99.90
47162;DHT22;32921;53.256;8.198;2023-10-08T08:20:31;14.30;99.90
47162;DHT22;32921;53.256;8.198;2023-10-08T08:23:04;14.40;99.90
47162;DHT22;32921;53.256;8.198;2023-10-08T08:25:40;14.50;99.90
47162;DHT22;32921;53.256;8.198;2023-10-08T08:28:21;14.50;99.90
47162;DHT22;32921;53.256;8.198;2023-10-08T08:30:50;14.50;99.90
47162;DHT22;32921;53.256;8.198;2023-10-08T08:33:18;14.60;99.90
47162;DHT22;32921;53.256;8.198;2023-10-08T08:35:58;14.60;99.90
47162;DHT22;32921;53.256;8.198;2023-10-08T08:38:25;14.60;99.90
47162;DHT22;32921;53.256;8.198;2023-10-08T08:40:50;14.50;99.90
47162;DHT22;32921;53.256;8.198;2023-10-08T08:43:17;14.30;99.90
47162;DHT22;32921;53.256;8.198;2023-10-08T08:45:44;14.10;99.90
47162;DHT22;32921;53.256;8.198;2023-10-08T08:48:16;13.90;99.90
47162;DHT22;32921;53.256;8.198;2023-10-08T08:50:44;14.10;99.90
47162;DHT22;32921;53.256;8.198;2023-10-08T08:53:11;14.10;99.90
47162;DHT22;32921;53.256;8.198;2023-10-08T08:55:37;14.20;99.90
47162;DHT22;32921;53.256;8.198;2023-10-08T08:58:05;14.50;99.90
47162;DHT22;32921;53.256;8.198;2023-10-08T09:00:36;14.50;99.90
47162;DHT22;32921;53.256;8.198;2023-10-08T09:03:03;14.80;99.90
47162;DHT22;32921;53.256;8.198;2023-10-08T09:05:32;15.00;99.90
47162;DHT22;32921;53.256;8.198;2023-10-08T09:08:04;15.20;99.90
47162;DHT22;32921;53.256;8.198;2023-10-08T09:10:36;15.30;99.90
47162;DHT22;32921;53.256;8.198;2023-10-08T09:13:19;15.10;99.90
47162;DHT22;32921;53.256;8.198;2023-10-08T09:15:49;15.00;99.90
47162;DHT22;32921;53.256;8.198;2023-10-08T09:18:14;14.90;99.90
47162;DHT22;32921;53.256;8.198;2023-10-08T09:20:40;14.80;99.90
47162;DHT22;32921;53.256;8.198;2023-10-08T09:23:14;14.90;99.90
47162;DHT22;32921;53.256;8.198;2023-10-08T09:25:44;14.90;99.90
47162;DHT22;32921;53.256;8.198;2023-10-08T09:28:11;15.00;99.90
47162;DHT22;32921;53.256;8.198;2023-10-08T09:30:40;15.20;99.90
47162;DHT22;32921;53.256;8.198;2023-10-08T09:33:10;15.30;99.90
47162;DHT22;32921;53.256;8.198;2023-10-08T09:35:37;15.50;99.90
47162;DHT22;32921;53.256;8.198;2023-10-08T09:38:04;15.50;99.90
47162;DHT22;32921;53.256;8.198;2023-10-08T09:40:30;15.80;99.90
47162;DHT22;32921;53.256;8.198;2023-10-08T09:42:56;16.40;99.90
47162;DHT22;32921;53.256;8.198;2023-10-08T09:45:22;17.00;99.90
47162;DHT22;32921;53.256;8.198;2023-10-08T09:47:53;17.80;99.90
47162;DHT22;32921;53.256;8.198;2023-10-08T09:50:28;17.60;99.90
47162;DHT22;32921;53.256;8.198;2023-10-08T09:53:08;17.40;99.90
47162;DHT22;32921;53.256;8.198;2023-10-08T09:55:44;17.40;99.90
47162;DHT22;32921;53.256;8.198;2023-10-08T09:58:11;17.20;99.90
47162;DHT22;32921;53.256;8.198;2023-10-08T10:00:40;17.00;99.90
47162;DHT22;32921;53.256;8.198;2023-10-08T10:03:08;16.90;99.90
47162;DHT22;32921;53.256;8.198;2023-10-08T10:05:34;17.20;99.90
47162;DHT22;32921;53.256;8.198;2023-10-08T10:08:04;17.20;99.90
47162;DHT22;32921;53.256;8.198;2023-10-08T10:10:36;17.30;99.90
47162;DHT22;32921;53.256;8.198;2023-10-08T10:13:10;17.50;99.90
47162;DHT22;32921;53.256;8.198;2023-10-08T10:15:37;17.50;99.90
47162;DHT22;32921;53.256;8.198;2023-10-08T10:20:53;17.10;99.90
47162;DHT22;32921;53.256;8.198;2023-10-08T10:23:41;16.80;99.90
47162;DHT22;32921;53.256;8.198;2023-10-08T10:26:31;16.80;99.90
47162;DHT22;32921;53.256;8.198;2023-10-08T10:31:44;16.70;99.90
47162;DHT22;32921;53.256;8.198;2023-10-08T10:34:11;16.80;99.90
47162;DHT22;32921;53.256;8.198;2023-10-08T10:36:40;16.50;99.90
47162;DHT22;32921;53.256;8.198;2023-10-08T10:39:06;16.30;99.90
47162;DHT22;32921;53.256;8.198;2023-10-08T10:41:45;15.90;99.90
47162;DHT22;32921;53.256;8.198;2023-10-08T10:44:12;15.90;99.90
47162;DHT22;32921;53.256;8.198;2023-10-08T10:46:40;16.10;99.90
47162;DHT22;32921;53.256;8.198;2023-10-08T10:49:07;16.70;99.90
47162;DHT22;32921;53.256;8.198;2023-10-08T10:51:42;17.60;99.90
47162;DHT22;32921;53.256;8.198;2023-10-08T10:54:07;18.80;98.70
47162;DHT22;32921;53.256;8.198;2023-10-08T10:56:34;19.40;92.80
47162;DHT22;32921;53.256;8.198;2023-10-08T10:59:08;19.40;90.60
47162;DHT22;32921;53.256;8.198;2023-10-08T11:01:52;19.50;90.50
47162;DHT22;32921;53.256;8.198;2023-10-08T11:04:20;19.60;86.80
47162;DHT22;32921;53.256;8.198;2023-10-08T11:06:52;19.50;89.80
47162;DHT22;32921;53.256;8.198;2023-10-08T11:09:22;18.60;88.10
47162;DHT22;32921;53.256;8.198;2023-10-08T11:12:02;18.50;90.10
47162;DHT22;32921;53.256;8.198;2023-10-08T11:14:28;18.80;91.10
47162;DHT22;32921;53.256;8.198;2023-10-08T11:16:55;18.60;92.10
47162;DHT22;32921;53.256;8.198;2023-10-08T11:19:20;18.70;90.90
47162;DHT22;32921;53.256;8.198;2023-10-08T11:21:52;18.60;90.40
47162;DHT22;32921;53.256;8.198;2023-10-08T11:24:28;17.90;92.50
47162;DHT22;32921;53.256;8.198;2023-10-08T11:26:54;17.60;93.40
47162;DHT22;32921;53.256;8.198;2023-10-08T11:29:32;17.90;92.60
47162;DHT22;32921;53.256;8.198;2023-10-08T11:31:59;18.60;92.90
47162;DHT22;32921;53.256;8.198;2023-10-08T11:34:31;18.50;91.10
47162;DHT22;32921;53.256;8.198;2023-10-08T11:37:02;18.80;88.00
47162;DHT22;32921;53.256;8.198;2023-10-08T11:39:39;18.70;89.10
47162;DHT22;32921;53.256;8.198;2023-10-08T11:42:10;18.80;87.00
47162;DHT22;32921;53.256;8.198;2023-10-08T11:45:07;18.40;90.20
47162;DHT22;32921;53.256;8.198;2023-10-08T11:47:50;18.50;88.90
47162;DHT22;32921;53.256;8.198;2023-10-08T11:50:25;18.40;91.40
47162;DHT22;32921;53.256;8.198;2023-10-08T11:53:00;18.50;90.80
47162;DHT22;32921;53.256;8.198;2023-10-08T11:55:34;18.00;91.00
47162;DHT22;32921;53.256;8.198;2023-10-08T11:58:07;18.10;91.10
47162;DHT22;32921;53.256;8.198;2023-10-08T12:00:40;18.30;91.70
47162;DHT22;32921;53.256;8.198;2023-10-08T12:03:17;18.60;91.10
47162;DHT22;32921;53.256;8.198;2023-10-08T12:05:50;19.20;90.00
47162;DHT22;32921;53.256;8.198;2023-10-08T12:08:24;20.00;86.40
47162;DHT22;32921;53.256;8.198;2023-10-08T12:10:53;19.80;82.70
47162;DHT22;32921;53.256;8.198;2023-10-08T12:13:20;19.30;84.30
47162;DHT22;32921;53.256;8.198;2023-10-08T12:15:55;19.60;84.70
47162;DHT22;32921;53.256;8.198;2023-10-08T12:18:38;19.60;87.50
47162;DHT22;32921;53.256;8.198;2023-10-08T12:21:08;19.90;82.20
47162;DHT22;32921;53.256;8.198;2023-10-08T12:23:39;20.80;79.60
47162;DHT22;32921;53.256;8.198;2023-10-08T12:26:06;19.80;81.40
47162;DHT22;32921;53.256;8.198;2023-10-08T12:28:33;19.50;84.30
47162;DHT22;32921;53.256;8.198;2023-10-08T12:31:00;19.50;86.10
47162;DHT22;32921;53.256;8.198;2023-10-08T12:33:26;19.40;81.80
47162;DHT22;32921;53.256;8.198;2023-10-08T12:35:52;18.50;83.20
47162;DHT22;32921;53.256;8.198;2023-10-08T12:38:19;18.60;82.10
47162;DHT22;32921;53.256;8.198;2023-10-08T12:40:48;18.60;81.90
47162;DHT22;32921;53.256;8.198;2023-10-08T12:43:18;19.10;82.00
47162;DHT22;32921;53.256;8.198;2023-10-08T12:45:51;19.60;82.60
47162;DHT22;32921;53.256;8.198;2023-10-08T12:48:27;19.70;82.40
47162;DHT22;32921;53.256;8.198;2023-10-08T12:50:54;19.70;85.50
47162;DHT22;32921;53.256;8.198;2023-10-08T12:53:23;20.00;81.20
47162;DHT22;32921;53.256;8.198;2023-10-08T12:56:11;20.00;80.40
47162;DHT22;32921;53.256;8.198;2023-10-08T12:58:41;20.00;81.30
47162;DHT22;32921;53.256;8.198;2023-10-08T13:01:12;20.10;82.40
47162;DHT22;32921;53.256;8.198;2023-10-08T13:03:40;20.60;83.00
47162;DHT22;32921;53.256;8.198;2023-10-08T13:06:13;20.80;77.70
47162;DHT22;32921;53.256;8.198;2023-10-08T13:08:51;20.90;78.90
47162;DHT22;32921;53.256;8.198;2023-10-08T13:11:19;20.40;80.40
47162;DHT22;32921;53.256;8.198;2023-10-08T13:13:54;19.40;80.50
47162;DHT22;32921;53.256;8.198;2023-10-08T13:16:22;19.50;82.10
47162;DHT22;32921;53.256;8.198;2023-10-08T13:18:49;20.00;80.10
47162;DHT22;32921;53.256;8.198;2023-10-08T13:21:15;20.20;77.40
47162;DHT22;32921;53.256;8.198;2023-10-08T13:23:42;20.30;78.40
47162;DHT22;32921;53.256;8.198;2023-10-08T13:26:08;19.80;80.30
47162;DHT22;32921;53.256;8.198;2023-10-08T13:28:35;20.10;80.40
47162;DHT22;32921;53.256;8.198;2023-10-08T13:31:01;20.10;78.70
47162;DHT22;32921;53.256;8.198;2023-10-08T13:33:35;19.30;82.00
47162;DHT22;32921;53.256;8.198;2023-10-08T13:36:01;18.90;87.50
47162;DHT22;32921;53.256;8.198;2023-10-08T13:38:27;19.00;87.30
47162;DHT22;32921;53.256;8.198;2023-10-08T13:40:53;19.10;85.70
47162;DHT22;32921;53.256;8.198;2023-10-08T13:43:29;19.40;83.50
47162;DHT22;32921;53.256;8.198;2023-10-08T13:46:03;19.10;82.30
47162;DHT22;32921;53.256;8.198;2023-10-08T13:48:31;18.70;85.20
47162;DHT22;32921;53.256;8.198;2023-10-08T13:51:05;18.40;85.50
47162;DHT22;32921;53.256;8.198;2023-10-08T13:53:34;18.50;88.80
47162;DHT22;32921;53.256;8.198;2023-10-08T13:56:02;19.00;90.10
47162;DHT22;32921;53.256;8.198;2023-10-08T13:58:33;19.20;88.90
47162;DHT22;32921;53.256;8.198;2023-10-08T14:01:06;18.80;85.60
47162;DHT22;32921;53.256;8.198;2023-10-08T14:03:46;18.90;88.70
47162;DHT22;32921;53.256;8.198;2023-10-08T14:06:12;19.00;88.90
47162;DHT22;32921;53.256;8.198;2023-10-08T14:08:38;18.80;87.30
47162;DHT22;32921;53.256;8.198;2023-10-08T14:11:04;19.00;84.10
47162;DHT22;32921;53.256;8.198;2023-10-08T14:13:31;18.80;84.90
47162;DHT22;32921;53.256;8.198;2023-10-08T14:16:00;18.70;87.00
47162;DHT22;32921;53.256;8.198;2023-10-08T14:18:30;18.60;90.00
47162;DHT22;32921;53.256;8.198;2023-10-08T14:21:08;18.70;89.00
47162;DHT22;32921;53.256;8.198;2023-10-08T14:23:36;18.90;87.40
47162;DHT22;32921;53.256;8.198;2023-10-08T14:26:09;19.10;85.50
47162;DHT22;32921;53.256;8.198;2023-10-08T14:28:35;19.20;85.80
47162;DHT22;32921;53.256;8.198;2023-10-08T14:31:17;19.40;83.60
47162;DHT22;32921;53.256;8.198;2023-10-08T14:33:45;19.60;84.40
47162;DHT22;32921;53.256;8.198;2023-10-08T14:36:29;19.60;83.80
47162;DHT22;32921;53.256;8.198;2023-10-08T14:39:13;19.70;84.30
47162;DHT22;32921;53.256;8.198;2023-10-08T14:41:57;19.60;83.10
47162;DHT22;32921;53.256;8.198;2023-10-08T14:44:41;19.40;83.80
47162;DHT22;32921;53.256;8.198;2023-10-08T14:47:07;19.10;86.10
47162;DHT22;32921;53.256;8.198;2023-10-08T14:49:33;19.10;86.10
47162;DHT22;32921;53.256;8.198;2023-10-08T14:51:59;19.00;85.50
47162;DHT22;32921;53.256;8.198;2023-10-08T14:54:25;19.00;86.00
47162;DHT22;32921;53.256;8.198;2023-10-08T14:56:51;18.90;83.00
47162;DHT22;32921;53.256;8.198;2023-10-08T14:59:17;19.10;86.70
47162;DHT22;32921;53.256;8.198;2023-10-08T15:01:46;19.10;90.10
47162;DHT22;32921;53.256;8.198;2023-10-08T15:04:12;19.10;84.60
47162;DHT22;32921;53.256;8.198;2023-10-08T15:06:38;19.00;84.80
47162;DHT22;32921;53.256;8.198;2023-10-08T15:09:07;18.80;85.60
47162;DHT22;32921;53.256;8.198;2023-10-08T15:11:44;18.60;89.00
47162;DHT22;32921;53.256;8.198;2023-10-08T15:14:11;18.30;86.90
47162;DHT22;32921;53.256;8.198;2023-10-08T15:16:37;18.20;91.50
47162;DHT22;32921;53.256;8.198;2023-10-08T15:19:04;18.10;91.30
47162;DHT22;32921;53.256;8.198;2023-10-08T15:21:31;18.00;92.10
47162;DHT22;32921;53.256;8.198;2023-10-08T15:23:59;18.10;92.30
47162;DHT22;32921;53.256;8.198;2023-10-08T15:26:32;18.00;91.30
47162;DHT22;32921;53.256;8.198;2023-10-08T15:28:57;18.00;92.10
47162;DHT22;32921;53.256;8.198;2023-10-08T15:31:23;18.00;94.30
47162;DHT22;32921;53.256;8.198;2023-10-08T15:33:50;18.00;92.60
47162;DHT22;32921;53.256;8.198;2023-10-08T15:36:15;17.90;92.20
47162;DHT22;32921;53.256;8.198;2023-10-08T15:38:41;17.80;93.00
47162;DHT22;32921;53.256;8.198;2023-10-08T15:41:06;17.70;94.60
47162;DHT22;32921;53.256;8.198;2023-10-08T15:43:32;17.50;94.70
47162;DHT22;32921;53.256;8.198;2023-10-08T15:45:59;17.20;95.60
47162;DHT22;32921;53.256;8.198;2023-10-08T15:48:25;17.10;96.70
47162;DHT22;32921;53.256;8.198;2023-10-08T15:50:51;17.00;97.10
47162;DHT22;32921;53.256;8.198;2023-10-08T15:53:17;16.80;98.60
47162;DHT22;32921;53.256;8.198;2023-10-08T15:55:42;16.60;99.90
47162;DHT22;32921;53.256;8.198;2023-10-08T15:58:08;16.40;99.90
47162;DHT22;32921;53.256;8.198;2023-10-08T16:00:33;16.30;99.90